Time;durP1;ratioP1;P1;durP2;ratioP2;P2;SDS_P1;SDS_P2;PMS_P1;PMS_P2;Temp;Humidity;BMP_temperature;BMP_pressure;BME280_temperature;BME280_humidity;BME280_pressure;Samples;Min_cycle;Max_cycle;Signal;HPM_P1;HPM_P2
2023/08/21 00:00:14;;;;;;;5.93;5.43;;;;;;;25.09;90.70;98635.59;5053034;28;20215;-86
2023/08/21 00:02:41;;;;;;;5.63;5.13;;;;;;;25.04;91.75;98637.16;5053641;28;20204;-87
2023/08/21 00:05:09;;;;;;;6.10;5.50;;;;;;;25.00;92.76;98638.56;5053472;28;20248;-87
2023/08/21 00:07:35;;;;;;;6.00;5.40;;;;;;;24.96;93.17;98640.81;5053457;28;20295;-86
2023/08/21 00:10:02;;;;;;;6.80;5.50;;;;;;;24.95;93.64;98639.13;5053184;28;20212;-87
2023/08/21 00:12:30;;;;;;;6.38;5.78;;;;;;;24.93;93.67;98640.34;5053020;28;20315;-86
2023/08/21 00:14:56;;;;;;;7.07;5.83;;;;;;;24.91;93.92;98636.94;5052946;28;20236;-86
2023/08/21 00:17:23;;;;;;;6.03;5.43;;;;;;;24.89;94.58;98639.88;5053234;28;20215;-87
2023/08/21 00:19:50;;;;;;;6.40;5.80;;;;;;;24.90;94.81;98635.28;5052884;28;20219;-86
2023/08/21 00:22:16;;;;;;;5.80;5.20;;;;;;;24.93;94.74;98630.34;5052917;28;20215;-86
2023/08/21 00:24:43;;;;;;;7.23;5.20;;;;;;;24.95;94.40;98644.53;5052876;28;20602;-86
2023/08/21 00:27:09;;;;;;;6.07;5.47;;;;;;;24.95;93.87;98633.72;5052706;28;20211;-85
2023/08/21 00:29:37;;;;;;;6.20;5.60;;;;;;;24.97;93.92;98637.06;5052793;28;20595;-86
2023/08/21 00:32:06;;;;;;;6.03;5.35;;;;;;;24.96;93.58;98634.53;5052749;28;20330;-85
2023/08/21 00:34:33;;;;;;;6.57;5.87;;;;;;;24.91;93.27;98637.81;5052532;28;20259;-86
2023/08/21 00:36:59;;;;;;;5.90;5.28;;;;;;;24.89;93.99;98629.03;5052072;28;20337;-87
2023/08/21 00:39:26;;;;;;;6.05;5.45;;;;;;;24.91;94.16;98640.50;5052321;28;20204;-87
2023/08/21 00:41:52;;;;;;;6.50;5.57;;;;;;;24.93;93.49;98637.63;5052430;28;20215;-86
2023/08/21 00:44:19;;;;;;;6.23;5.63;;;;;;;24.92;92.90;98630.53;5052625;28;20235;-87
2023/08/21 00:46:46;;;;;;;5.78;5.18;;;;;;;24.92;93.14;98625.97;5052422;28;20208;-87
2023/08/21 00:49:13;;;;;;;6.00;5.40;;;;;;;24.89;93.40;98623.63;5052116;28;20208;-85
2023/08/21 00:51:40;;;;;;;7.23;5.63;;;;;;;24.87;92.99;98609.44;5052453;28;20611;-87
2023/08/21 00:54:06;;;;;;;6.18;5.50;;;;;;;24.81;93.03;98614.75;5052218;28;20239;-87
2023/08/21 00:56:34;;;;;;;6.27;5.67;;;;;;;24.75;93.66;98619.00;5052468;28;20211;-86
2023/08/21 00:59:00;;;;;;;7.57;5.50;;;;;;;24.67;94.73;98612.84;5051564;28;20230;-86
2023/08/21 01:01:29;;;;;;;6.03;5.43;;;;;;;24.59;95.44;98615.63;5051600;28;20219;-86
2023/08/21 01:03:57;;;;;;;6.17;5.57;;;;;;;24.53;95.83;98614.47;5052203;28;20224;-86
2023/08/21 01:06:24;;;;;;;6.23;5.63;;;;;;;24.49;96.94;98617.69;5052080;28;20204;-86
2023/08/21 01:08:56;;;;;;;6.28;5.30;;;;;;;24.39;97.58;98623.34;5051984;28;20219;-86
2023/08/21 01:11:29;;;;;;;5.97;5.10;;;;;;;24.30;98.45;98621.72;5051713;28;20230;-86
2023/08/21 01:14:04;;;;;;;5.97;5.23;;;;;;;24.23;99.18;98617.22;5052017;28;20243;-86
2023/08/21 01:16:32;;;;;;;6.83;5.63;;;;;;;24.20;99.39;98618.41;5052093;28;20208;-86
2023/08/21 01:19:02;;;;;;;6.03;5.40;;;;;;;24.16;99.45;98617.13;5051919;28;20584;-86
2023/08/21 01:21:29;;;;;;;6.13;5.53;;;;;;;24.09;99.62;98624.22;5051577;28;20215;-86
2023/08/21 01:23:57;;;;;;;6.90;5.50;;;;;;;24.07;100.00;98620.88;5051665;28;20740;-86
2023/08/21 01:26:23;;;;;;;6.63;5.87;;;;;;;24.05;100.00;98622.94;5051970;28;20218;-86
2023/08/21 01:28:50;;;;;;;5.77;5.20;;;;;;;24.00;100.00;98617.22;5051770;28;20219;-87
2023/08/21 01:31:22;;;;;;;6.93;5.40;;;;;;;23.99;100.00;98622.78;5051722;28;20473;-87
2023/08/21 01:33:52;;;;;;;8.03;5.93;;;;;;;23.96;100.00;98615.88;5051653;28;20234;-88
2023/08/21 01:36:19;;;;;;;6.87;5.70;;;;;;;23.93;100.00;98624.34;5051968;28;20215;-87
2023/08/21 01:38:46;;;;;;;6.38;5.70;;;;;;;23.91;100.00;98620.16;5051682;28;20215;-86
2023/08/21 01:41:13;;;;;;;6.13;5.53;;;;;;;23.86;100.00;98619.78;5051530;28;20208;-86
2023/08/21 01:43:40;;;;;;;6.23;5.63;;;;;;;23.83;100.00;98628.25;5051587;28;20277;-86
2023/08/21 01:46:07;;;;;;;7.10;5.63;;;;;;;23.76;100.00;98628.13;5051670;28;20204;-86
2023/08/21 01:48:33;;;;;;;6.33;5.50;;;;;;;23.68;100.00;98620.06;5051494;28;20204;-86
2023/08/21 01:51:02;;;;;;;6.07;5.40;;;;;;;23.66;100.00;98624.78;5051467;28;20207;-85
2023/08/21 01:53:28;;;;;;;7.83;6.00;;;;;;;23.63;100.00;98622.44;5051274;28;20232;-86
2023/08/21 01:55:54;;;;;;;6.50;5.90;;;;;;;23.56;100.00;98624.16;5052120;28;20203;-85
2023/08/21 01:58:22;;;;;;;5.70;5.17;;;;;;;23.46;100.00;98623.53;5051728;28;20211;-85
2023/08/21 02:00:49;;;;;;;6.07;5.47;;;;;;;23.33;100.00;98620.53;5051445;28;20208;-85
2023/08/21 02:03:15;;;;;;;6.73;6.03;;;;;;;23.24;100.00;98621.59;5065196;28;20196;-85
2023/08/21 02:05:42;;;;;;;6.97;6.27;;;;;;;23.15;100.00;98617.19;5077263;28;20200;-87
2023/08/21 02:08:13;;;;;;;6.67;5.97;;;;;;;23.10;100.00;98619.56;5077090;28;20192;-86
2023/08/21 02:10:48;;;;;;;6.60;6.00;;;;;;;23.07;100.00;98614.53;5076779;28;20200;-86
2023/08/21 02:13:14;;;;;;;7.63;6.30;;;;;;;23.05;100.00;98616.53;5066283;28;20227;-86
2023/08/21 02:15:42;;;;;;;7.30;6.00;;;;;;;23.03;100.00;98618.56;5066790;28;20219;-86
2023/08/21 02:18:09;;;;;;;8.50;7.07;;;;;;;23.05;100.00;98624.63;5066736;28;20218;-85
2023/08/21 02:20:35;;;;;;;8.77;6.83;;;;;;;23.05;100.00;98616.53;5064990;28;20204;-86
2023/08/21 02:23:02;;;;;;;8.20;7.40;;;;;;;23.09;100.00;98619.72;5054853;28;20208;-87
2023/08/21 02:25:30;;;;;;;8.07;7.20;;;;;;;23.08;100.00;98613.50;5051324;28;20235;-86
2023/08/21 02:27:57;;;;;;;8.07;6.63;;;;;;;23.08;100.00;98616.22;5051058;28;20214;-86
2023/08/21 02:30:25;;;;;;;7.80;6.83;;;;;;;23.05;100.00;98616.53;5051157;28;20212;-85
2023/08/21 02:32:53;;;;;;;8.07;6.97;;;;;;;23.04;100.00;98620.25;5051336;28;20369;-86
2023/08/21 02:35:19;;;;;;;7.83;7.03;;;;;;;23.00;100.00;98618.94;5051186;28;20510;-86
2023/08/21 02:37:46;;;;;;;7.57;6.77;;;;;;;22.96;100.00;98622.13;5051056;28;20208;-86
2023/08/21 02:40:12;;;;;;;7.50;6.70;;;;;;;22.90;100.00;98629.06;5050957;28;20229;-86
2023/08/21 02:42:39;;;;;;;9.53;7.43;;;;;;;22.86;100.00;98621.47;5051433;28;20211;-87
2023/08/21 02:45:08;;;;;;;8.90;7.40;;;;;;;22.85;100.00;98620.63;5051149;28;20224;-87
2023/08/21 02:47:36;;;;;;;8.47;7.50;;;;;;;22.82;100.00;98626.38;5051400;28;20560;-86
2023/08/21 02:50:04;;;;;;;8.70;7.37;;;;;;;22.81;100.00;98624.66;5050965;28;20214;-87
2023/08/21 02:52:31;;;;;;;8.10;6.97;;;;;;;22.82;100.00;98626.38;5050978;28;20228;-87
2023/08/21 02:54:58;;;;;;;10.93;7.30;;;;;;;22.85;100.00;98630.59;5050874;28;20604;-86
2023/08/21 02:57:25;;;;;;;8.33;7.50;;;;;;;22.82;100.00;98625.53;5051373;28;20296;-89
2023/08/21 02:59:51;;;;;;;8.30;7.30;;;;;;;22.79;100.00;98632.09;5056049;28;20223;-81
2023/08/21 03:02:18;;;;;;;7.63;6.90;;;;;;;22.78;100.00;98635.81;5065193;28;20215;-82
2023/08/21 03:04:45;;;;;;;8.13;7.00;;;;;;;22.78;100.00;98627.72;5067727;28;20223;-83
2023/08/21 03:07:13;;;;;;;8.47;7.33;;;;;;;22.80;100.00;98627.56;5063181;28;20223;-87
2023/08/21 03:09:40;;;;;;;7.77;6.83;;;;;;;22.76;100.00;98627.06;5055607;28;20218;-83
2023/08/21 03:12:08;;;;;;;7.63;6.83;;;;;;;22.71;100.00;98624.03;5054862;28;20645;-85
2023/08/21 03:14:35;;;;;;;8.13;7.30;;;;;;;22.70;100.00;98618.81;5069630;22;20235;-84
2023/08/21 03:17:01;;;;;;;8.40;6.90;;;;;;;22.72;100.00;98616.75;5054203;28;20204;-84
2023/08/21 03:19:28;;;;;;;8.23;6.93;;;;;;;22.71;100.00;98628.56;5053694;28;20212;-84
2023/08/21 03:21:54;;;;;;;8.50;6.37;;;;;;;22.66;100.00;98626.38;5053880;28;20218;-84
2023/08/21 03:24:22;;;;;;;6.57;5.83;;;;;;;22.66;100.00;98621.00;5053948;28;20224;-85
2023/08/21 03:26:49;;;;;;;7.33;5.93;;;;;;;22.62;100.00;98630.41;5054066;28;20208;-85
2023/08/21 03:29:15;;;;;;;7.50;6.30;;;;;;;22.58;100.00;98626.41;5053881;28;20216;-85
2023/08/21 03:31:42;;;;;;;6.60;5.90;;;;;;;22.55;100.00;98626.72;5053661;28;20647;-84
2023/08/21 03:34:08;;;;;;;7.20;6.03;;;;;;;22.47;100.00;98624.03;5053860;28;20232;-84
2023/08/21 03:36:37;;;;;;;8.20;6.43;;;;;;;22.38;100.00;98627.69;5053461;28;20678;-85
2023/08/21 03:39:05;;;;;;;6.83;5.97;;;;;;;22.32;100.00;98632.91;5053788;28;20610;-85
2023/08/21 03:41:33;;;;;;;7.63;6.23;;;;;;;22.26;100.00;98631.72;5053671;28;20208;-84
2023/08/21 03:43:59;;;;;;;7.07;6.37;;;;;;;22.21;100.00;98631.41;5053564;28;20691;-85
2023/08/21 03:46:26;;;;;;;8.10;6.83;;;;;;;22.18;100.00;98634.41;5053478;28;20223;-84
2023/08/21 03:48:53;;;;;;;8.53;6.40;;;;;;;22.16;100.00;98633.75;5053795;28;20255;-85
2023/08/21 03:51:19;;;;;;;6.67;5.97;;;;;;;22.16;100.00;98636.44;5052961;28;20212;-85
2023/08/21 03:53:45;;;;;;;7.67;6.87;;;;;;;22.12;100.00;98637.78;5053146;28;20232;-84
2023/08/21 03:56:12;;;;;;;7.43;6.70;;;;;;;22.09;100.00;98637.25;5053426;28;20216;-84
2023/08/21 03:58:40;;;;;;;7.77;6.90;;;;;;;22.05;100.00;98636.75;5053479;28;20212;-85
2023/08/21 04:01:06;;;;;;;7.87;7.07;;;;;;;22.02;100.00;98647.88;5053020;28;20208;-85
2023/08/21 04:03:33;;;;;;;8.60;7.33;;;;;;;21.98;100.00;98656.41;5053255;28;20203;-84
2023/08/21 04:05:59;;;;;;;9.10;7.73;;;;;;;21.95;100.00;98649.50;5053229;28;20244;-85
2023/08/21 04:08:26;;;;;;;8.90;7.43;;;;;;;21.92;100.00;98652.53;5053096;28;20682;-85
2023/08/21 04:10:53;;;;;;;9.70;7.80;;;;;;;21.90;100.00;98654.56;5051510;28;20697;-85
2023/08/21 04:13:19;;;;;;;9.20;7.63;;;;;;;21.85;100.00;98661.44;5052968;28;20512;-85
2023/08/21 04:15:50;;;;;;;8.80;7.83;;;;;;;21.85;100.00;98662.28;5052838;28;20832;-85
2023/08/21 04:18:16;;;;;;;9.17;7.20;;;;;;;21.86;100.00;98663.97;5053063;28;20231;-84
2023/08/21 04:20:43;;;;;;;9.23;7.80;;;;;;;21.82;100.00;98665.28;5052607;28;20219;-84
2023/08/21 04:23:10;;;;;;;8.87;7.80;;;;;;;21.80;100.00;98666.44;5052821;28;20208;-86
2023/08/21 04:25:36;;;;;;;8.80;7.57;;;;;;;21.79;100.00;98667.47;5052778;28;20337;-86
2023/08/21 04:28:03;;;;;;;8.30;7.50;;;;;;;21.77;100.00;98675.69;5052791;28;20215;-81
2023/08/21 04:30:29;;;;;;;9.23;7.87;;;;;;;21.79;100.00;98676.38;5052384;28;20702;-82
2023/08/21 04:32:58;;;;;;;9.63;7.50;;;;;;;21.83;100.00;98672.34;5052570;28;20570;-83
2023/08/21 04:35:25;;;;;;;9.03;7.27;;;;;;;21.86;100.00;98671.19;5052775;28;20224;-84
2023/08/21 04:37:52;;;;;;;7.87;7.07;;;;;;;21.85;100.00;98682.94;5052382;28;20219;-84
2023/08/21 04:40:20;;;;;;;8.87;7.50;;;;;;;21.85;100.00;98669.50;5052411;28;20215;-84
2023/08/21 04:42:47;;;;;;;8.73;7.20;;;;;;;21.84;100.00;98665.97;5052486;28;20204;-83
2023/08/21 04:45:13;;;;;;;9.43;7.53;;;;;;;21.83;100.00;98664.28;5052647;28;20232;-83
2023/08/21 04:47:40;;;;;;;7.77;6.87;;;;;;;21.87;100.00;98664.78;5052199;28;20212;-84
2023/08/21 04:50:08;;;;;;;8.00;7.20;;;;;;;21.89;100.00;98663.63;5052324;28;20214;-81
2023/08/21 04:52:35;;;;;;;9.87;6.87;;;;;;;21.93;100.00;98662.28;5052484;28;20617;-84
2023/08/21 04:55:01;;;;;;;8.07;7.27;;;;;;;21.95;100.00;98665.66;5052345;28;20224;-81
2023/08/21 04:57:28;;;;;;;8.70;6.90;;;;;;;22.00;100.00;98665.19;5052066;28;20224;-78
2023/08/21 04:59:54;;;;;;;9.63;7.03;;;;;;;22.01;100.00;98667.69;5051686;28;20204;-80
2023/08/21 05:02:21;;;;;;;7.47;6.67;;;;;;;22.03;100.00;98671.09;5052227;28;20204;-84
2023/08/21 05:04:48;;;;;;;9.43;7.17;;;;;;;22.07;100.00;98669.72;5052025;28;20224;-84
2023/08/21 05:07:16;;;;;;;7.73;6.97;;;;;;;22.15;100.00;98669.75;5052173;28;20269;-84
2023/08/21 05:09:42;;;;;;;9.20;7.00;;;;;;;22.20;100.00;98675.47;5051808;28;20580;-86
2023/08/21 05:12:09;;;;;;;8.47;7.23;;;;;;;22.22;100.00;98676.16;5051908;28;20208;-86
2023/08/21 05:14:35;;;;;;;7.93;7.13;;;;;;;22.29;100.00;98682.56;5052065;28;20240;-86
2023/08/21 05:17:02;;;;;;;10.23;7.90;;;;;;;22.41;100.00;98675.84;5053156;28;20234;-85
2023/08/21 05:19:28;;;;;;;8.27;7.40;;;;;;;22.45;100.00;98677.25;5053860;28;20212;-83
2023/08/21 05:21:55;;;;;;;8.00;7.20;;;;;;;22.55;100.00;98683.31;5052476;28;20211;-87
2023/08/21 05:24:22;;;;;;;9.07;7.43;;;;;;;22.62;100.00;98683.50;5052347;28;20223;-88
2023/08/21 05:26:49;;;;;;;7.77;6.90;;;;;;;22.69;100.00;98679.09;5053499;28;20687;-90
2023/08/21 05:29:15;;;;;;;8.33;7.10;;;;;;;22.74;100.00;98682.16;5051861;28;20220;-89
2023/08/21 05:31:42;;;;;;;9.10;6.90;;;;;;;22.80;100.00;98676.91;5051515;28;20224;-85
2023/08/21 05:34:08;;;;;;;7.40;6.57;;;;;;;22.86;100.00;98687.00;5051385;28;20235;-81
2023/08/21 05:36:35;;;;;;;8.87;6.77;;;;;;;22.93;100.00;98681.78;5051663;28;20210;-83
2023/08/21 05:39:05;;;;;;;7.90;6.27;;;;;;;23.00;100.00;98686.34;5051439;28;20214;-87
2023/08/21 05:41:33;;;;;;;8.33;6.67;;;;;;;23.07;100.00;98683.78;5051308;28;20231;-88
2023/08/21 05:44:00;;;;;;;8.33;7.00;;;;;;;23.15;100.00;98692.72;5051298;28;20230;-88
2023/08/21 05:46:26;;;;;;;8.37;6.80;;;;;;;23.28;100.00;98695.75;5051348;28;20216;-88
2023/08/21 05:48:53;;;;;;;7.37;6.43;;;;;;;23.32;100.00;98694.41;5051120;28;20202;-87
2023/08/21 05:51:19;;;;;;;7.33;6.40;;;;;;;23.45;100.00;98696.53;5050918;28;20204;-85
2023/08/21 05:53:46;;;;;;;8.23;6.93;;;;;;;23.54;100.00;98701.75;5050820;28;20227;-80
2023/08/21 05:56:13;;;;;;;10.57;7.00;;;;;;;23.67;100.00;98704.75;5050849;28;20650;-84
2023/08/21 05:58:40;;;;;;;7.73;6.90;;;;;;;23.73;100.00;98698.66;5050860;28;20212;-85
2023/08/21 06:01:07;;;;;;;6.67;6.07;;;;;;;23.89;100.00;98701.31;5051168;28;20208;-89
2023/08/21 06:03:33;;;;;;;7.03;6.32;;;;;;;24.21;100.00;98709.25;5048793;28;20796;-89
2023/08/21 06:06:00;;;;;;;7.13;6.03;;;;;;;24.68;100.00;98696.47;5049472;28;20235;-88
2023/08/21 06:08:26;;;;;;;7.77;6.37;;;;;;;25.21;100.00;98693.63;5050980;28;20211;-89
2023/08/21 06:10:53;;;;;;;6.43;5.83;;;;;;;25.70;98.85;98689.41;5049418;28;20211;-88
2023/08/21 06:13:19;;;;;;;6.93;6.23;;;;;;;26.15;94.81;98686.47;5050753;28;20605;-87
2023/08/21 06:15:47;;;;;;;6.77;5.73;;;;;;;26.52;91.24;98680.84;5050752;28;20236;-88
2023/08/21 06:18:14;;;;;;;7.13;6.33;;;;;;;26.82;87.17;98677.00;5051137;28;20223;-87
2023/08/21 06:20:42;;;;;;;8.88;7.13;;;;;;;26.95;81.40;98658.13;5050614;28;20561;-83
2023/08/21 06:23:09;;;;;;;10.88;6.30;;;;;;;27.01;80.12;98665.47;5050669;28;20222;-81
2023/08/21 06:25:35;;;;;;;8.47;6.30;;;;;;;26.87;80.14;98671.81;5050460;28;20243;-81
2023/08/21 06:28:01;;;;;;;6.47;5.87;;;;;;;26.49;81.20;98680.38;5050840;28;20208;-81
2023/08/21 06:30:28;;;;;;;8.40;6.60;;;;;;;26.09;84.19;98689.13;5050486;28;20204;-82
2023/08/21 06:32:56;;;;;;;7.00;6.10;;;;;;;25.82;86.65;98698.75;5050649;28;20219;-82
2023/08/21 06:35:23;;;;;;;7.65;6.07;;;;;;;25.66;87.31;98693.50;5053088;28;20231;-82
2023/08/21 06:37:49;;;;;;;7.23;6.43;;;;;;;25.52;87.44;98691.66;5054385;28;20590;-78
2023/08/21 06:40:16;;;;;;;6.97;5.80;;;;;;;25.41;89.04;98699.41;5054373;28;20212;-78
2023/08/21 06:42:42;;;;;;;7.03;6.23;;;;;;;25.35;89.81;98703.66;5054828;28;20208;-89
2023/08/21 06:45:09;;;;;;;7.75;5.82;;;;;;;25.37;90.31;98708.91;5054319;28;20612;-89
2023/08/21 06:47:36;;;;;;;6.73;6.00;;;;;;;25.36;89.83;98702.63;5054451;28;20208;-89
2023/08/21 06:50:04;;;;;;;7.63;6.13;;;;;;;25.42;90.14;98707.31;5054085;28;20219;-89
2023/08/21 06:52:31;;;;;;;7.37;5.93;;;;;;;25.47;89.87;98710.31;5054362;28;20212;-89
2023/08/21 06:54:57;;;;;;;7.00;6.20;;;;;;;25.52;89.53;98702.47;5053956;28;20235;-89
2023/08/21 06:57:24;;;;;;;6.63;5.80;;;;;;;25.63;90.03;98704.72;5054537;28;20219;-89
2023/08/21 06:59:50;;;;;;;6.37;5.67;;;;;;;25.77;88.56;98706.59;5053929;28;20215;-89
2023/08/21 07:02:17;;;;;;;7.03;6.33;;;;;;;25.80;87.21;98695.38;5054139;28;20659;-89
2023/08/21 07:04:43;;;;;;;6.87;5.97;;;;;;;25.83;86.93;98695.00;5054313;28;20227;-89
2023/08/21 07:07:11;;;;;;;6.73;5.80;;;;;;;25.85;86.49;98692.94;5053945;28;20224;-89
2023/08/21 07:09:38;;;;;;;7.80;5.77;;;;;;;25.98;86.26;98695.84;5054301;28;20208;-89
2023/08/21 07:12:05;;;;;;;6.78;6.07;;;;;;;26.03;85.98;98704.25;5054193;28;20215;-89
2023/08/21 07:14:31;;;;;;;6.57;5.87;;;;;;;26.17;86.34;98707.97;5054054;28;20232;-90
2023/08/21 07:16:58;;;;;;;6.85;6.18;;;;;;;26.29;86.43;98711.88;5054338;28;20212;-90
2023/08/21 07:19:24;;;;;;;10.23;6.40;;;;;;;26.42;84.70;98698.47;5053759;28;20208;-90
2023/08/21 07:21:51;;;;;;;8.73;7.00;;;;;;;26.46;84.21;98707.91;5053669;28;20214;-90
2023/08/21 07:24:19;;;;;;;7.20;6.43;;;;;;;26.53;84.28;98712.38;5053777;28;20582;-90
2023/08/21 07:26:46;;;;;;;7.60;6.63;;;;;;;26.67;84.57;98707.94;5053778;28;20212;-90
2023/08/21 07:29:12;;;;;;;10.23;6.95;;;;;;;26.77;81.82;98700.31;5053706;28;20215;-90
2023/08/21 07:31:39;;;;;;;6.63;5.97;;;;;;;26.74;82.63;98709.69;5053665;28;20209;-90
2023/08/21 07:34:05;;;;;;;7.57;6.25;;;;;;;26.79;83.13;98712.66;5053429;28;20319;-90
2023/08/21 07:36:32;;;;;;;7.63;6.05;;;;;;;26.81;82.84;98713.31;5053508;28;20212;-90
2023/08/21 07:38:59;;;;;;;6.88;6.05;;;;;;;26.93;81.58;98706.31;5053730;28;20210;-90
2023/08/21 07:41:26;;;;;;;7.33;6.50;;;;;;;26.94;80.74;98708.00;5053135;28;20204;-90
2023/08/21 07:43:53;;;;;;;6.38;5.78;;;;;;;27.00;80.18;98699.06;5053327;28;20204;-90
2023/08/21 07:46:19;;;;;;;7.03;6.32;;;;;;;27.07;80.98;98707.28;5053575;28;20207;-90
2023/08/21 07:48:46;;;;;;;7.40;6.40;;;;;;;27.19;79.49;98706.56;5054352;28;20208;-89
2023/08/21 07:51:14;;;;;;;7.90;6.10;;;;;;;27.30;78.12;98703.31;5054547;28;20207;-90
2023/08/21 07:53:40;;;;;;;7.80;6.30;;;;;;;27.25;78.20;98704.97;5053510;28;20204;-90
2023/08/21 07:56:07;;;;;;;7.22;5.95;;;;;;;27.34;78.19;98710.03;5053283;28;20211;-90
2023/08/21 07:58:35;;;;;;;9.50;5.93;;;;;;;27.46;76.24;98705.75;5053586;28;20200;-90
2023/08/21 08:01:03;;;;;;;8.07;6.28;;;;;;;27.51;75.85;98700.56;5052985;28;20291;-90
2023/08/21 08:03:31;;;;;;;7.03;6.18;;;;;;;27.49;74.95;98703.47;5053193;28;20208;-90
2023/08/21 08:05:57;;;;;;;7.40;6.25;;;;;;;27.64;74.79;98703.38;5053760;28;20224;-90
2023/08/21 08:08:25;;;;;;;8.20;6.05;;;;;;;27.73;74.12;98699.44;5054166;28;20215;-90
2023/08/21 08:10:51;;;;;;;7.10;6.18;;;;;;;27.79;74.22;98704.09;5053479;28;20295;-90
2023/08/21 08:13:18;;;;;;;6.65;5.95;;;;;;;27.83;73.39;98699.94;5054111;28;20581;-90
2023/08/21 08:15:46;;;;;;;8.85;6.30;;;;;;;27.93;72.13;98701.25;5054321;28;20239;-90
2023/08/21 08:18:13;;;;;;;7.22;6.50;;;;;;;27.89;74.67;98704.56;5053688;28;20204;-90
2023/08/21 08:20:40;;;;;;;8.35;6.78;;;;;;;27.93;74.24;98705.84;5053302;28;20620;-90
2023/08/21 08:23:06;;;;;;;8.02;6.25;;;;;;;28.16;73.85;98706.38;5054050;28;20215;-90
2023/08/21 08:25:33;;;;;;;9.38;6.88;;;;;;;28.21;74.27;98714.75;5053192;28;20243;-90
2023/08/21 08:27:59;;;;;;;7.10;6.03;;;;;;;28.14;73.46;98703.03;5053180;28;20253;-90
2023/08/21 08:30:26;;;;;;;7.07;6.38;;;;;;;28.20;74.03;98707.66;5053932;28;20212;-91
2023/08/21 08:32:54;;;;;;;9.25;6.65;;;;;;;28.24;74.42;98708.94;5053053;28;20204;-91
2023/08/21 08:35:20;;;;;;;7.38;6.13;;;;;;;28.30;70.87;98697.25;5053761;28;20240;-91
2023/08/21 08:37:47;;;;;;;6.47;5.72;;;;;;;28.50;69.16;98690.00;5053921;28;20230;-91
2023/08/21 08:40:13;;;;;;;6.93;5.95;;;;;;;28.50;69.04;98692.72;5053242;28;20208;-90
2023/08/21 08:42:40;;;;;;;6.13;5.53;;;;;;;28.60;69.55;98698.59;5052852;28;20219;-91
2023/08/21 08:45:08;;;;;;;6.55;5.70;;;;;;;28.74;67.49;98678.53;5052946;28;20228;-91
2023/08/21 08:47:35;;;;;;;6.95;5.70;;;;;;;28.75;67.57;98691.09;5052688;28;20212;-91
2023/08/21 08:50:05;;;;;;;7.53;6.10;;;;;;;28.91;67.04;98687.97;5052664;28;20254;-91
2023/08/21 08:52:36;;;;;;;7.03;6.18;;;;;;;28.89;67.20;98679.16;5053444;28;20211;-91
2023/08/21 08:55:04;;;;;;;7.60;6.07;;;;;;;28.96;67.56;98688.19;5052310;28;20243;-91
2023/08/21 08:57:31;;;;;;;6.72;6.03;;;;;;;29.11;67.05;98680.69;5052125;28;20245;-90
2023/08/21 08:59:58;;;;;;;8.38;6.60;;;;;;;29.24;65.81;98677.94;5053452;28;20211;-91
2023/08/21 09:02:26;;;;;;;6.72;5.78;;;;;;;29.31;66.13;98686.94;5053170;28;20208;-91
2023/08/21 09:04:52;;;;;;;6.45;5.80;;;;;;;29.51;64.57;98677.72;5053728;28;20227;-91
2023/08/21 09:07:21;;;;;;;6.82;6.03;;;;;;;29.45;64.42;98669.53;5053286;28;20204;-90
2023/08/21 09:09:50;;;;;;;6.43;5.82;;;;;;;29.47;64.82;98678.34;5052792;28;20248;-90
2023/08/21 09:12:18;;;;;;;6.45;5.85;;;;;;;29.50;64.84;98672.47;5053428;28;20541;-90
2023/08/21 09:14:45;;;;;;;7.07;6.38;;;;;;;29.69;65.68;98685.25;5067586;22;20238;-77
2023/08/21 09:17:12;;;;;;;6.60;6.00;;;;;;;29.81;63.37;98672.63;5051803;28;20212;-77
2023/08/21 09:19:39;;;;;;;8.00;6.55;;;;;;;29.99;62.43;98661.88;5051673;28;20208;-79
2023/08/21 09:22:10;;;;;;;6.32;5.70;;;;;;;29.99;61.22;98664.59;5051638;28;20697;-78
2023/08/21 09:24:39;;;;;;;6.65;5.93;;;;;;;29.93;62.14;98665.47;5051386;28;20349;-78
2023/08/21 09:27:13;;;;;;;6.32;5.47;;;;;;;30.02;60.38;98661.44;5051816;28;20208;-78
2023/08/21 09:29:40;;;;;;;7.38;6.10;;;;;;;29.92;61.04;98661.06;5051788;28;20207;-78
2023/08/21 09:32:07;;;;;;;7.78;5.93;;;;;;;29.94;63.19;98678.03;5051658;28;20269;-78
2023/08/21 09:34:37;;;;;;;6.78;5.85;;;;;;;30.09;60.85;98662.28;5051283;28;20228;-77
2023/08/21 09:37:06;;;;;;;6.50;5.78;;;;;;;30.23;61.46;98672.94;5051461;28;20216;-78
2023/08/21 09:39:34;;;;;;;8.02;6.10;;;;;;;30.24;59.94;98662.84;5051400;28;20601;-78
2023/08/21 09:42:05;;;;;;;6.35;5.70;;;;;;;30.16;59.92;98658.50;5051743;28;20204;-78
2023/08/21 09:44:36;;;;;;;6.00;5.47;;;;;;;30.13;59.31;98655.38;5051417;28;20228;-80
2023/08/21 09:47:03;;;;;;;6.35;5.75;;;;;;;30.24;58.79;98643.75;5051455;28;20208;-77
2023/08/21 09:49:30;;;;;;;5.78;5.28;;;;;;;30.32;58.93;98651.69;5051101;28;20204;-78
2023/08/21 09:51:58;;;;;;;6.50;5.90;;;;;;;30.29;57.59;98641.19;5051240;28;20208;-78
2023/08/21 09:54:25;;;;;;;6.20;5.60;;;;;;;30.38;58.76;98650.81;5051264;28;20232;-78
2023/08/21 09:56:52;;;;;;;5.10;4.60;;;;;;;30.44;54.30;98619.94;5051265;28;20204;-78
2023/08/21 09:59:20;;;;;;;5.60;4.60;;;;;;;30.62;53.66;98620.03;5051217;28;20234;-78
2023/08/21 10:01:50;;;;;;;5.25;4.75;;;;;;;30.79;52.35;98604.78;5051341;28;20223;-78
2023/08/21 10:04:18;;;;;;;7.05;4.95;;;;;;;30.77;52.25;98609.63;5051040;28;20218;-78
2023/08/21 10:06:47;;;;;;;6.15;5.00;;;;;;;30.75;53.47;98623.50;5051592;28;20211;-78
2023/08/21 10:09:14;;;;;;;9.07;5.28;;;;;;;30.76;54.42;98624.34;5051779;28;20208;-78
2023/08/21 10:11:43;;;;;;;6.07;5.38;;;;;;;30.63;54.77;98624.41;5055328;28;20214;-78
2023/08/21 10:14:09;;;;;;;7.28;5.50;;;;;;;30.70;54.72;98615.16;5055179;28;20207;-79
2023/08/21 10:16:37;;;;;;;5.80;5.20;;;;;;;30.63;54.53;98613.50;5055056;28;20211;-79
2023/08/21 10:19:06;;;;;;;4.90;4.50;;;;;;;30.83;53.48;98611.47;5055073;28;20212;-79
2023/08/21 10:21:37;;;;;;;4.93;3.67;;;;;;;30.98;50.29;98579.22;5055345;28;20207;-80
2023/08/21 10:24:04;;;;;;;6.05;4.50;;;;;;;30.95;52.25;98596.03;5055143;28;20208;-78
2023/08/21 10:26:30;;;;;;;6.07;4.88;;;;;;;30.96;51.07;98587.63;5055086;28;20228;-78
2023/08/21 10:29:02;;;;;;;5.22;4.55;;;;;;;31.00;52.16;98586.09;5055086;28;20214;-79
2023/08/21 10:31:30;;;;;;;6.05;4.32;;;;;;;30.97;52.29;98588.47;5057126;28;20555;-79
2023/08/21 10:34:00;;;;;;;5.18;4.22;;;;;;;31.02;51.68;98581.28;5055481;28;20211;-78
2023/08/21 10:37:05;;;;;;;6.75;4.28;;;;;;;31.18;49.36;98571.72;5054888;28;20235;-79
2023/08/21 10:39:33;;;;;;;6.65;4.22;;;;;;;31.14;50.51;98573.16;5052692;28;20208;-78
2023/08/21 10:42:03;;;;;;;4.82;4.28;;;;;;;31.14;50.58;98578.63;5054623;28;20251;-79
2023/08/21 10:44:51;;;;;;;5.65;4.70;;;;;;;31.00;50.25;98567.00;5054563;28;20228;-77
2023/08/21 10:47:19;;;;;;;4.63;4.22;;;;;;;31.14;50.47;98578.63;5054698;28;20212;-78
2023/08/21 10:49:50;;;;;;;5.15;4.45;;;;;;;31.20;49.62;98572.31;5054373;28;20216;-78
2023/08/21 10:52:22;;;;;;;5.85;4.72;;;;;;;31.22;51.12;98581.94;5054571;28;20218;-78
2023/08/21 10:54:50;;;;;;;5.10;4.47;;;;;;;31.27;52.01;98586.72;5054628;28;20262;-77
2023/08/21 10:57:17;;;;;;;5.18;4.68;;;;;;;31.34;51.07;98580.13;5054654;28;20602;-77
2023/08/21 10:59:57;;;;;;;6.47;4.32;;;;;;;31.35;52.23;98583.72;5054155;28;20216;-77
2023/08/21 11:02:24;;;;;;;5.70;4.20;;;;;;;31.51;53.42;98599.50;5054374;28;20689;-77
2023/08/21 11:04:53;;;;;;;5.35;4.78;;;;;;;31.59;51.15;98577.34;5054237;28;20232;-78
2023/08/21 11:07:20;;;;;;;5.47;4.82;;;;;;;31.60;51.73;98579.81;5054433;28;20326;-78
2023/08/21 11:09:48;;;;;;;6.10;5.00;;;;;;;31.54;51.33;98577.19;5054067;28;20204;-78
2023/08/21 11:12:17;;;;;;;5.57;4.68;;;;;;;31.57;51.10;98579.44;5054432;28;20204;-79
2023/08/21 11:14:44;;;;;;;4.75;4.35;;;;;;;31.58;50.80;98576.50;5053980;28;20240;-78
2023/08/21 11:17:11;;;;;;;6.65;4.70;;;;;;;31.71;50.56;98580.97;5054058;28;20208;-78
2023/08/21 11:19:38;;;;;;;5.28;4.60;;;;;;;31.77;49.67;98575.44;5053491;28;20212;-77
2023/08/21 11:22:07;;;;;;;7.00;4.80;;;;;;;31.76;50.37;98578.41;5054043;28;20208;-79
2023/08/21 11:24:45;;;;;;;5.60;5.00;;;;;;;31.75;49.86;98579.47;5054207;28;20228;-79
2023/08/21 11:27:13;;;;;;;5.22;4.75;;;;;;;31.90;49.44;98566.25;5053902;28;20254;-80
2023/08/21 11:29:42;;;;;;;5.63;4.60;;;;;;;31.83;49.43;98573.69;5053478;28;20307;-77